Time;durP1;ratioP1;P1;durP2;ratioP2;P2;SDS_P1;SDS_P2;PMS_P1;PMS_P2;Temp;Humidity;BMP_temperature;BMP_pressure;BME280_temperature;BME280_humidity;BME280_pressure;Samples;Min_cycle;Max_cycle;Signal;HPM_P1;HPM_P2
2021/08/05 00:00:00;;;;;;;;;;;14.10;92.50;;;;;;5092289;28;19919;-65
2021/08/05 00:02:27;;;;;;;;;;;14.20;92.40;;;;;;5092038;28;19955;-64
2021/08/05 00:04:54;;;;;;;;;;;14.30;92.10;;;;;;5092076;28;19919;-65
2021/08/05 00:07:20;;;;;;;;;;;14.40;91.90;;;;;;5092039;28;19916;-65
2021/08/05 00:09:47;;;;;;;;;;;14.50;91.50;;;;;;5091729;28;20333;-65
2021/08/05 00:12:14;;;;;;;;;;;14.40;91.00;;;;;;5092267;28;19958;-66
2021/08/05 00:14:41;;;;;;;;;;;14.50;91.20;;;;;;5092426;28;19916;-65
2021/08/05 00:17:08;;;;;;;;;;;14.60;90.90;;;;;;5092147;28;19908;-65
2021/08/05 00:19:35;;;;;;;;;;;14.70;91.20;;;;;;5091623;28;19930;-65
2021/08/05 00:22:02;;;;;;;;;;;14.70;91.30;;;;;;5091982;28;19908;-67
2021/08/05 00:24:28;;;;;;;;;;;14.70;90.50;;;;;;5091745;28;20346;-66
2021/08/05 00:26:55;;;;;;;;;;;14.80;90.30;;;;;;5091928;28;19923;-66
2021/08/05 00:29:22;;;;;;;;;;;14.80;90.10;;;;;;5092022;28;19939;-67
2021/08/05 00:31:48;;;;;;;;;;;15.00;90.00;;;;;;5091753;28;19915;-66
2021/08/05 00:34:15;;;;;;;;;;;15.10;89.90;;;;;;5092200;28;19908;-65
2021/08/05 00:36:42;;;;;;;;;;;15.10;89.60;;;;;;5092039;28;19962;-65
2021/08/05 00:39:08;;;;;;;;;;;15.10;89.40;;;;;;5091519;28;20002;-65
2021/08/05 00:41:35;;;;;;;;;;;15.10;89.60;;;;;;5091451;28;19908;-66
2021/08/05 00:44:02;;;;;;;;;;;15.20;88.90;;;;;;5091918;28;19908;-66
2021/08/05 00:46:29;;;;;;;;;;;15.10;88.90;;;;;;5091855;28;19924;-67
2021/08/05 00:48:56;;;;;;;;;;;15.20;88.60;;;;;;5093277;28;19982;-65
2021/08/05 00:51:22;;;;;;;;;;;15.30;88.40;;;;;;5095621;28;19908;-65
2021/08/05 00:53:49;;;;;;;;;;;15.30;88.30;;;;;;5095189;28;19908;-64
2021/08/05 00:56:16;;;;;;;;;;;15.30;88.20;;;;;;5095464;28;20320;-64
2021/08/05 00:58:43;;;;;;;;;;;15.30;88.90;;;;;;5095475;28;19908;-65
2021/08/05 01:01:15;;;;;;;;;;;15.40;89.40;;;;;;5095187;28;19915;-64
2021/08/05 01:03:43;;;;;;;;;;;15.50;89.70;;;;;;5095103;28;20267;-65
2021/08/05 01:06:15;;;;;;;;;;;15.60;87.20;;;;;;5095137;28;19923;-65
2021/08/05 01:08:44;;;;;;;;;;;15.80;85.60;;;;;;5095194;28;20377;-66
2021/08/05 01:11:20;;;;;;;;;;;16.00;85.40;;;;;;5095266;28;19943;-65
2021/08/05 01:13:46;;;;;;;;;;;16.20;85.50;;;;;;5094484;28;20045;-66
2021/08/05 01:16:14;;;;;;;;;;;16.50;84.80;;;;;;5094909;28;20040;-65
2021/08/05 01:18:41;;;;;;;;;;;16.70;82.50;;;;;;5094904;28;19989;-65
2021/08/05 01:21:12;;;;;;;;;;;16.70;83.10;;;;;;5095111;28;20034;-66
2021/08/05 01:23:57;;;;;;;;;;;16.90;83.30;;;;;;5094329;28;20324;-66
2021/08/05 01:26:42;;;;;;;;;;;17.40;81.70;;;;;;5092271;28;20076;-65
2021/08/05 01:29:09;;;;;;;;;;;17.40;80.70;;;;;;5094820;28;20366;-64
2021/08/05 01:31:35;;;;;;;;;;;17.20;81.50;;;;;;5094598;28;19909;-65
2021/08/05 01:34:02;;;;;;;;;;;17.20;81.10;;;;;;5094668;28;19912;-66
2021/08/05 01:36:30;;;;;;;;;;;17.00;81.50;;;;;;5094972;28;19908;-65
2021/08/05 01:38:58;;;;;;;;;;;16.80;82.10;;;;;;5094514;28;19908;-65
2021/08/05 01:41:25;;;;;;;;;;;16.70;81.90;;;;;;5094788;28;19908;-64
2021/08/05 01:43:52;;;;;;;;;;;16.60;82.60;;;;;;5094469;28;19908;-64
2021/08/05 01:46:19;;;;;;;;;;;16.60;82.00;;;;;;5094338;28;19931;-65
2021/08/05 01:48:47;;;;;;;;;;;16.60;82.00;;;;;;5094354;28;19908;-65
2021/08/05 01:51:14;;;;;;;;;;;16.60;82.50;;;;;;5094542;28;19912;-65
2021/08/05 01:53:42;;;;;;;;;;;16.70;82.00;;;;;;5094229;28;20274;-65
2021/08/05 01:56:08;;;;;;;;;;;16.70;81.90;;;;;;5094373;28;19995;-66
2021/08/05 01:58:35;;;;;;;;;;;16.70;81.40;;;;;;5094374;28;19908;-65
2021/08/05 02:01:02;;;;;;;;;;;16.70;80.30;;;;;;5094563;28;20341;-65
2021/08/05 02:03:29;;;;;;;;;;;16.60;81.40;;;;;;5076192;28;19958;-65
2021/08/05 02:06:10;;;;;;;;;;;16.60;81.30;;;;;;5094157;28;20279;-65
2021/08/05 02:08:56;;;;;;;;;;;16.60;81.20;;;;;;5092181;28;19962;-66
2021/08/05 02:11:27;;;;;;;;;;;16.60;81.20;;;;;;5074047;28;19991;-65
2021/08/05 02:13:54;;;;;;;;;;;16.70;80.30;;;;;;5073018;28;19912;-65
2021/08/05 02:16:24;;;;;;;;;;;16.80;81.20;;;;;;5073843;28;19955;-65
2021/08/05 02:18:51;;;;;;;;;;;16.70;80.40;;;;;;5073620;28;19908;-66
2021/08/05 02:21:23;;;;;;;;;;;16.60;80.90;;;;;;5073558;28;19909;-65
2021/08/05 02:23:51;;;;;;;;;;;16.60;80.00;;;;;;5073296;28;19909;-66
2021/08/05 02:26:17;;;;;;;;;;;16.60;80.30;;;;;;5073589;28;19962;-65
2021/08/05 02:28:44;;;;;;;;;;;16.60;80.00;;;;;;5072968;28;19991;-65
2021/08/05 02:31:13;;;;;;;;;;;16.60;80.30;;;;;;5073590;28;19966;-66
2021/08/05 02:33:40;;;;;;;;;;;16.50;80.30;;;;;;5073480;28;19908;-66
2021/08/05 02:36:07;;;;;;;;;;;16.50;81.30;;;;;;5073496;28;19908;-66
2021/08/05 02:38:34;;;;;;;;;;;16.60;81.50;;;;;;5072811;28;19921;-65
2021/08/05 02:41:01;;;;;;;;;;;16.60;81.90;;;;;;5073249;28;19916;-65
2021/08/05 02:43:28;;;;;;;;;;;16.60;82.30;;;;;;5073214;28;20382;-66
2021/08/05 02:45:56;;;;;;;;;;;16.60;82.20;;;;;;5072714;28;20074;-65
2021/08/05 02:48:23;;;;;;;;;;;16.60;81.50;;;;;;5073184;28;19910;-66
2021/08/05 02:50:50;;;;;;;;;;;16.70;80.50;;;;;;5073140;28;20344;-65
2021/08/05 02:53:17;;;;;;;;;;;16.80;80.80;;;;;;5072950;28;19916;-65
2021/08/05 02:55:44;;;;;;;;;;;16.80;80.20;;;;;;5072796;28;19940;-65
2021/08/05 02:58:12;;;;;;;;;;;16.90;79.30;;;;;;5055386;28;20295;-66
2021/08/05 03:00:38;;;;;;;;;;;17.00;80.30;;;;;;5072842;28;19915;-66
2021/08/05 03:03:05;;;;;;;;;;;17.00;79.70;;;;;;5072374;28;19915;-65
2021/08/05 03:05:32;;;;;;;;;;;17.00;80.10;;;;;;5089638;28;19920;-66
2021/08/05 03:07:59;;;;;;;;;;;17.00;79.40;;;;;;5092774;28;19908;-65
2021/08/05 03:10:25;;;;;;;;;;;17.00;79.50;;;;;;5092773;28;19914;-65
2021/08/05 03:12:52;;;;;;;;;;;17.00;79.60;;;;;;5092481;28;19914;-65
2021/08/05 03:15:18;;;;;;;;;;;17.00;79.30;;;;;;5092780;28;19999;-65
2021/08/05 03:17:45;;;;;;;;;;;17.00;79.90;;;;;;5092472;28;19908;-65
2021/08/05 03:20:15;;;;;;;;;;;17.10;80.00;;;;;;5093062;28;19915;-65
2021/08/05 03:22:43;;;;;;;;;;;17.20;79.60;;;;;;5092716;28;19908;-65
2021/08/05 03:25:10;;;;;;;;;;;17.20;79.70;;;;;;5092483;28;19915;-65
2021/08/05 03:27:37;;;;;;;;;;;17.10;79.60;;;;;;5092497;28;19908;-65
2021/08/05 03:30:04;;;;;;;;;;;17.10;79.40;;;;;;5092628;28;19915;-66
2021/08/05 03:32:31;;;;;;;;;;;17.10;79.20;;;;;;5092678;28;20003;-66
2021/08/05 03:34:58;;;;;;;;;;;17.00;79.50;;;;;;5092408;28;19919;-66
2021/08/05 03:37:25;;;;;;;;;;;17.00;79.40;;;;;;5074347;28;19908;-66
2021/08/05 03:39:51;;;;;;;;;;;17.00;79.40;;;;;;5092524;28;19908;-65
2021/08/05 03:42:18;;;;;;;;;;;17.00;80.20;;;;;;5092812;28;19909;-65
2021/08/05 03:44:45;;;;;;;;;;;17.00;78.00;;;;;;5092306;28;19948;-64
2021/08/05 03:47:11;;;;;;;;;;;17.00;78.90;;;;;;5092435;28;19924;-66
2021/08/05 03:49:38;;;;;;;;;;;16.90;78.90;;;;;;5092280;28;19915;-66
2021/08/05 03:52:05;;;;;;;;;;;16.90;79.20;;;;;;5092311;28;19920;-65
2021/08/05 03:54:31;;;;;;;;;;;17.00;79.10;;;;;;5092559;28;19908;-67
2021/08/05 03:56:58;;;;;;;;;;;16.90;79.60;;;;;;5092493;28;19908;-66
2021/08/05 03:59:25;;;;;;;;;;;16.90;79.80;;;;;;5092431;28;19990;-65
2021/08/05 04:01:51;;;;;;;;;;;16.90;79.90;;;;;;5092633;28;19912;-66
2021/08/05 04:04:18;;;;;;;;;;;16.90;79.20;;;;;;5092746;28;19958;-66
2021/08/05 04:06:45;;;;;;;;;;;16.90;79.50;;;;;;5092434;28;19920;-65
2021/08/05 04:09:11;;;;;;;;;;;16.90;78.40;;;;;;5092442;28;20362;-65
2021/08/05 04:11:38;;;;;;;;;;;16.90;78.40;;;;;;5092291;28;19909;-64
2021/08/05 04:14:05;;;;;;;;;;;17.00;78.70;;;;;;5088979;28;19912;-65
2021/08/05 04:16:31;;;;;;;;;;;17.00;78.50;;;;;;5092417;28;19914;-64
2021/08/05 04:18:58;;;;;;;;;;;17.10;78.00;;;;;;5092330;28;19951;-65
2021/08/05 04:21:24;;;;;;;;;;;17.20;77.80;;;;;;5092076;28;20380;-65
2021/08/05 04:23:51;;;;;;;;;;;17.20;77.10;;;;;;5095423;28;19908;-66
2021/08/05 04:26:18;;;;;;;;;;;17.20;78.40;;;;;;5096403;28;19919;-66
2021/08/05 04:28:44;;;;;;;;;;;17.20;78.10;;;;;;5096187;28;20355;-66
2021/08/05 04:31:11;;;;;;;;;;;17.10;79.10;;;;;;5096042;28;19915;-65
2021/08/05 04:33:38;;;;;;;;;;;17.10;79.30;;;;;;5094887;28;19908;-65
2021/08/05 04:36:04;;;;;;;;;;;17.00;78.80;;;;;;5095994;28;20042;-65
2021/08/05 04:38:31;;;;;;;;;;;17.00;79.10;;;;;;5095736;28;20310;-66
2021/08/05 04:40:58;;;;;;;;;;;17.00;80.10;;;;;;5096149;28;20267;-65
2021/08/05 04:43:24;;;;;;;;;;;17.00;79.20;;;;;;5096133;28;19915;-64
2021/08/05 04:45:51;;;;;;;;;;;16.90;79.10;;;;;;5095553;28;19930;-65
2021/08/05 04:48:18;;;;;;;;;;;16.90;78.90;;;;;;5095778;28;20338;-65
2021/08/05 04:50:44;;;;;;;;;;;16.90;80.20;;;;;;5095700;28;19908;-65
2021/08/05 04:53:16;;;;;;;;;;;17.00;79.40;;;;;;5095415;28;19923;-65
2021/08/05 04:55:43;;;;;;;;;;;17.00;78.60;;;;;;5095408;28;19908;-65
2021/08/05 04:58:10;;;;;;;;;;;17.00;78.80;;;;;;5095570;28;19915;-66
2021/08/05 05:00:41;;;;;;;;;;;17.00;78.90;;;;;;5095452;28;19912;-65
2021/08/05 05:03:08;;;;;;;;;;;17.10;79.00;;;;;;5095698;28;19908;-65
2021/08/05 05:05:35;;;;;;;;;;;17.10;78.40;;;;;;5095361;28;20375;-64
2021/08/05 05:08:19;;;;;;;;;;;17.20;78.60;;;;;;5095499;28;19908;-65
2021/08/05 05:10:46;;;;;;;;;;;17.10;78.80;;;;;;5095503;28;19931;-65
2021/08/05 05:13:13;;;;;;;;;;;17.20;79.00;;;;;;5095478;28;19908;-65
2021/08/05 05:15:39;;;;;;;;;;;17.20;79.20;;;;;;5094988;28;20362;-65
2021/08/05 05:18:06;;;;;;;;;;;17.20;79.00;;;;;;5077182;28;20359;-64
2021/08/05 05:20:34;;;;;;;;;;;17.20;79.50;;;;;;5095278;28;19916;-64
2021/08/05 05:23:01;;;;;;;;;;;17.20;78.80;;;;;;5094970;28;19913;-65
2021/08/05 05:25:27;;;;;;;;;;;17.20;78.70;;;;;;5094990;28;19915;-64
2021/08/05 05:27:54;;;;;;;;;;;17.10;78.90;;;;;;5094893;28;19964;-65
2021/08/05 05:30:22;;;;;;;;;;;17.10;79.40;;;;;;5094997;28;20390;-65
2021/08/05 05:32:48;;;;;;;;;;;17.00;80.00;;;;;;5094885;28;19943;-65
2021/08/05 05:35:16;;;;;;;;;;;17.00;80.00;;;;;;5094111;28;20376;-65
2021/08/05 05:37:44;;;;;;;;;;;17.00;79.20;;;;;;5094534;28;19909;-64
2021/08/05 05:40:11;;;;;;;;;;;16.90;80.00;;;;;;5094959;28;19961;-64
2021/08/05 05:42:37;;;;;;;;;;;16.90;79.70;;;;;;5094759;28;20278;-65
2021/08/05 05:45:05;;;;;;;;;;;16.90;80.50;;;;;;5094424;28;19920;-65
2021/08/05 05:47:32;;;;;;;;;;;16.90;80.40;;;;;;5094357;28;19923;-65
2021/08/05 05:49:59;;;;;;;;;;;16.90;80.40;;;;;;5093948;28;20006;-64
2021/08/05 05:52:26;;;;;;;;;;;16.90;79.90;;;;;;5094173;28;19915;-65
2021/08/05 05:54:53;;;;;;;;;;;16.80;79.00;;;;;;5094486;28;19934;-65
2021/08/05 05:57:19;;;;;;;;;;;16.80;79.40;;;;;;5094406;28;19912;-66
2021/08/05 05:59:46;;;;;;;;;;;16.80;79.30;;;;;;5094141;28;19916;-65
2021/08/05 06:02:12;;;;;;;;;;;16.80;80.10;;;;;;5076433;28;19908;-65
2021/08/05 06:04:39;;;;;;;;;;;16.70;80.80;;;;;;5094185;28;19908;-66
2021/08/05 06:07:06;;;;;;;;;;;16.70;81.30;;;;;;5094006;28;20386;-66
2021/08/05 06:09:32;;;;;;;;;;;16.60;81.90;;;;;;5093823;28;19986;-66
2021/08/05 06:11:59;;;;;;;;;;;16.60;81.00;;;;;;5093974;28;19999;-65
2021/08/05 06:14:26;;;;;;;;;;;16.50;80.60;;;;;;5094000;28;19940;-66
2021/08/05 06:16:52;;;;;;;;;;;16.50;81.00;;;;;;5093878;28;19998;-66
2021/08/05 06:19:19;;;;;;;;;;;16.40;80.10;;;;;;5094223;28;19951;-66
2021/08/05 06:21:46;;;;;;;;;;;16.40;80.10;;;;;;5093690;28;19908;-66
2021/08/05 06:24:12;;;;;;;;;;;16.30;80.30;;;;;;5093908;28;20007;-66
2021/08/05 06:26:40;;;;;;;;;;;16.30;80.90;;;;;;5093894;28;19920;-66
2021/08/05 06:29:07;;;;;;;;;;;16.30;81.10;;;;;;5093705;28;20286;-65
2021/08/05 06:31:34;;;;;;;;;;;16.20;81.30;;;;;;5075284;28;20313;-66
2021/08/05 06:34:04;;;;;;;;;;;16.20;81.60;;;;;;5094121;28;19954;-66
2021/08/05 06:36:31;;;;;;;;;;;16.20;81.60;;;;;;5093591;28;19919;-67
2021/08/05 06:38:58;;;;;;;;;;;16.20;82.10;;;;;;5093752;28;19909;-66
2021/08/05 06:41:25;;;;;;;;;;;16.10;82.50;;;;;;5093509;28;19908;-66
2021/08/05 06:43:51;;;;;;;;;;;16.10;83.40;;;;;;5093386;28;19908;-64
2021/08/05 06:46:18;;;;;;;;;;;16.00;82.90;;;;;;5092433;28;19927;-64
2021/08/05 06:48:45;;;;;;;;;;;16.00;83.00;;;;;;5093355;28;19915;-66
2021/08/05 06:51:11;;;;;;;;;;;15.90;83.00;;;;;;5091350;28;19918;-66
2021/08/05 06:53:38;;;;;;;;;;;15.90;83.60;;;;;;5090460;28;20235;-66
2021/08/05 06:56:05;;;;;;;;;;;15.90;83.50;;;;;;5091161;28;19939;-65
2021/08/05 06:58:32;;;;;;;;;;;15.80;84.10;;;;;;5073068;28;19980;-65
2021/08/05 07:01:00;;;;;;;;;;;15.80;84.40;;;;;;5091068;28;19977;-66
2021/08/05 07:03:27;;;;;;;;;;;15.70;84.80;;;;;;5091009;28;20355;-66
2021/08/05 07:05:54;;;;;;;;;;;15.70;85.40;;;;;;5090396;28;19920;-67
2021/08/05 07:08:21;;;;;;;;;;;15.60;85.90;;;;;;5090994;28;20467;-65
2021/08/05 07:10:47;;;;;;;;;;;15.60;86.70;;;;;;5090959;28;19912;-66
2021/08/05 07:13:14;;;;;;;;;;;15.50;85.90;;;;;;5077399;28;19913;-64
2021/08/05 07:15:41;;;;;;;;;;;15.40;86.00;;;;;;5069972;28;19974;-64
2021/08/05 07:18:08;;;;;;;;;;;15.40;86.10;;;;;;5070345;28;19908;-65
2021/08/05 07:20:35;;;;;;;;;;;15.30;86.10;;;;;;5070664;28;19913;-66
2021/08/05 07:23:01;;;;;;;;;;;15.30;86.90;;;;;;5070308;28;19969;-67
2021/08/05 07:25:28;;;;;;;;;;;15.20;87.10;;;;;;5070212;28;19917;-65
2021/08/05 07:27:55;;;;;;;;;;;15.20;87.20;;;;;;5070004;28;19920;-66
2021/08/05 07:30:21;;;;;;;;;;;15.10;87.00;;;;;;5070072;28;19912;-64
2021/08/05 07:32:49;;;;;;;;;;;15.10;87.50;;;;;;5070691;28;19909;-65
2021/08/05 07:35:16;;;;;;;;;;;15.00;87.70;;;;;;5070512;28;19913;-66
2021/08/05 07:37:43;;;;;;;;;;;15.00;88.20;;;;;;5069991;28;20018;-66
2021/08/05 07:40:10;;;;;;;;;;;14.90;88.40;;;;;;5070143;28;19970;-66
2021/08/05 07:42:36;;;;;;;;;;;14.90;88.10;;;;;;5070312;28;19913;-66
2021/08/05 07:45:03;;;;;;;;;;;14.80;88.40;;;;;;5069785;28;19999;-66
2021/08/05 07:47:30;;;;;;;;;;;14.80;88.70;;;;;;5070180;28;20295;-65
2021/08/05 07:49:56;;;;;;;;;;;14.80;88.30;;;;;;5070282;28;19908;-66
2021/08/05 07:52:23;;;;;;;;;;;14.80;88.90;;;;;;5070041;28;19921;-66
2021/08/05 07:54:50;;;;;;;;;;;14.70;88.70;;;;;;5069970;28;19920;-67
2021/08/05 07:57:16;;;;;;;;;;;14.70;89.20;;;;;;5069659;28;19924;-66
2021/08/05 07:59:45;;;;;;;;;;;14.60;89.00;;;;;;5069902;28;20044;-66
2021/08/05 08:02:13;;;;;;;;;;;14.60;89.10;;;;;;5070140;28;20007;-65
2021/08/05 08:04:39;;;;;;;;;;;14.60;89.50;;;;;;5070279;28;19908;-66
2021/08/05 08:07:06;;;;;;;;;;;14.60;89.50;;;;;;5069891;28;19917;-67
2021/08/05 08:09:33;;;;;;;;;;;14.50;89.70;;;;;;5069473;28;19928;-66
2021/08/05 08:12:00;;;;;;;;;;;14.50;90.00;;;;;;5069951;28;19976;-66
2021/08/05 08:14:26;;;;;;;;;;;14.50;89.90;;;;;;5069918;28;19994;-66
2021/08/05 08:16:53;;;;;;;;;;;14.40;90.00;;;;;;5069899;28;19912;-65
2021/08/05 08:19:20;;;;;;;;;;;14.40;90.10;;;;;;5070050;28;19978;-66
2021/08/05 08:21:46;;;;;;;;;;;14.40;90.20;;;;;;5069732;28;20412;-66
2021/08/05 08:24:13;;;;;;;;;;;14.30;89.90;;;;;;5069760;28;19915;-66
2021/08/05 08:26:39;;;;;;;;;;;14.30;90.00;;;;;;5052053;28;20346;-66
2021/08/05 08:29:07;;;;;;;;;;;14.30;90.00;;;;;;5070237;28;20046;-66
2021/08/05 08:31:33;;;;;;;;;;;14.20;90.40;;;;;;5069563;28;19919;-64
2021/08/05 08:34:00;;;;;;;;;;;14.20;90.30;;;;;;5069807;28;19908;-64
2021/08/05 08:36:27;;;;;;;;;;;14.20;90.30;;;;;;5068981;28;19913;-64
2021/08/05 08:38:54;;;;;;;;;;;14.20;90.50;;;;;;5069388;28;19923;-65
2021/08/05 08:41:21;;;;;;;;;;;14.20;90.30;;;;;;5069686;28;19912;-65
2021/08/05 08:43:48;;;;;;;;;;;14.10;90.20;;;;;;5069620;28;20412;-68
2021/08/05 08:46:20;;;;;;;;;;;14.10;90.30;;;;;;5069405;28;20277;-65
2021/08/05 08:48:50;;;;;;;;;;;14.10;90.30;;;;;;5069326;28;19939;-66
2021/08/05 08:51:18;;;;;;;;;;;14.00;90.20;;;;;;5069358;28;20409;-66
2021/08/05 08:53:45;;;;;;;;;;;14.10;90.40;;;;;;5069266;28;19913;-64
2021/08/05 08:56:12;;;;;;;;;;;14.00;90.30;;;;;;5069683;28;20003;-67
2021/08/05 08:58:39;;;;;;;;;;;14.00;90.50;;;;;;5069484;28;19919;-65
2021/08/05 09:01:06;;;;;;;;;;;14.00;90.60;;;;;;5069953;28;19990;-65
2021/08/05 09:03:33;;;;;;;;;;;14.00;90.60;;;;;;5068964;28;19919;-65
2021/08/05 09:06:00;;;;;;;;;;;14.00;90.70;;;;;;5070102;28;20061;-65
2021/08/05 09:08:27;;;;;;;;;;;13.90;90.70;;;;;;5071664;28;19932;-65
2021/08/05 09:10:58;;;;;;;;;;;13.90;90.90;;;;;;5074482;28;19935;-64
2021/08/05 09:13:24;;;;;;;;;;;13.90;91.10;;;;;;5074981;28;19909;-64
2021/08/05 09:15:51;;;;;;;;;;;13.80;91.20;;;;;;5074750;28;19919;-64
2021/08/05 09:18:29;;;;;;;;;;;13.80;91.50;;;;;;5075056;28;20282;-64
2021/08/05 09:21:14;;;;;;;;;;;13.80;91.40;;;;;;5074047;28;19909;-64
2021/08/05 09:23:56;;;;;;;;;;;13.70;91.40;;;;;;5074556;28;19909;-64
2021/08/05 09:26:24;;;;;;;;;;;13.70;91.60;;;;;;5074686;28;20343;-65
2021/08/05 09:29:04;;;;;;;;;;;13.70;91.90;;;;;;5074668;28;19908;-66
2021/08/05 09:31:31;;;;;;;;;;;13.70;91.60;;;;;;5074266;28;19995;-65
2021/08/05 09:34:01;;;;;;;;;;;13.70;91.60;;;;;;5074630;28;19912;-65
2021/08/05 09:36:28;;;;;;;;;;;13.70;91.80;;;;;;5073827;28;20003;-66
2021/08/05 09:38:54;;;;;;;;;;;13.70;92.00;;;;;;5074570;28;19908;-67
2021/08/05 09:41:21;;;;;;;;;;;13.70;91.70;;;;;;5074541;28;19913;-65
2021/08/05 09:43:48;;;;;;;;;;;13.60;91.90;;;;;;5074275;28;19915;-66
2021/08/05 09:46:29;;;;;;;;;;;13.60;91.60;;;;;;5074013;28;19920;-65
2021/08/05 09:48:55;;;;;;;;;;;13.60;91.70;;;;;;5074177;28;20424;-65
2021/08/05 09:51:22;;;;;;;;;;;13.60;92.00;;;;;;5073902;28;19995;-65
2021/08/05 09:53:53;;;;;;;;;;;13.50;91.80;;;;;;5074018;28;20386;-66
2021/08/05 09:56:19;;;;;;;;;;;13.50;91.90;;;;;;5074041;28;20358;-67
2021/08/05 09:58:47;;;;;;;;;;;13.50;92.00;;;;;;5074311;28;20155;-66
2021/08/05 10:01:13;;;;;;;;;;;13.40;92.10;;;;;;5074002;28;19912;-67
2021/08/05 10:03:40;;;;;;;;;;;13.40;92.10;;;;;;5073976;28;19908;-66
2021/08/05 10:06:07;;;;;;;;;;;13.40;92.10;;;;;;5073124;28;19923;-67
2021/08/05 10:08:34;;;;;;;;;;;13.40;92.30;;;;;;5073945;28;20394;-66
2021/08/05 10:11:01;;;;;;;;;;;13.40;92.40;;;;;;5074024;28;19909;-67
2021/08/05 10:13:29;;;;;;;;;;;13.40;92.20;;;;;;5073856;28;19908;-66
2021/08/05 10:15:55;;;;;;;;;;;13.30;92.40;;;;;;5087007;28;19908;-67
2021/08/05 10:18:27;;;;;;;;;;;13.30;92.40;;;;;;5093811;28;20264;-67
2021/08/05 10:20:55;;;;;;;;;;;13.30;92.50;;;;;;5092808;28;19919;-65
2021/08/05 10:23:23;;;;;;;;;;;13.20;92.60;;;;;;5093616;28;20424;-65
2021/08/05 10:25:49;;;;;;;;;;;13.20;92.80;;;;;;5093439;28;20279;-65
2021/08/05 10:28:16;;;;;;;;;;;13.20;92.70;;;;;;5093969;28;20379;-65
2021/08/05 10:30:44;;;;;;;;;;;13.20;92.80;;;;;;5075600;28;19994;-65
2021/08/05 10:33:11;;;;;;;;;;;13.10;92.90;;;;;;5093535;28;19909;-68
2021/08/05 10:35:37;;;;;;;;;;;13.20;92.80;;;;;;5092743;28;19915;-66
2021/08/05 10:38:05;;;;;;;;;;;13.10;92.80;;;;;;5093610;28;20363;-66
2021/08/05 10:40:32;;;;;;;;;;;13.10;92.80;;;;;;5093716;28;20370;-66
2021/08/05 10:43:00;;;;;;;;;;;13.10;93.00;;;;;;5093566;28;19908;-66
2021/08/05 10:45:27;;;;;;;;;;;13.10;93.00;;;;;;5093166;28;19927;-66
2021/08/05 10:47:55;;;;;;;;;;;13.10;93.00;;;;;;5092985;28;19916;-66
2021/08/05 10:50:22;;;;;;;;;;;13.00;93.20;;;;;;5092648;28;20350;-66
2021/08/05 10:52:50;;;;;;;;;;;13.00;93.30;;;;;;5087239;28;20347;-65
2021/08/05 10:55:17;;;;;;;;;;;13.00;93.30;;;;;;5093210;28;19915;-65
2021/08/05 10:57:44;;;;;;;;;;;13.00;93.30;;;;;;5093102;28;20000;-65
2021/08/05 11:00:13;;;;;;;;;;;13.00;93.30;;;;;;5092969;28;20054;-65
2021/08/05 11:02:45;;;;;;;;;;;13.00;93.50;;;;;;5088621;28;19909;-66
2021/08/05 11:05:32;;;;;;;;;;;12.90;93.70;;;;;;5091888;28;19978;-66
2021/08/05 11:08:08;;;;;;;;;;;12.90;93.70;;;;;;5082920;28;19924;-67
2021/08/05 11:10:37;;;;;;;;;;;12.90;93.80;;;;;;5093186;28;19912;-66
2021/08/05 11:13:10;;;;;;;;;;;12.90;93.80;;;;;;5092189;28;19981;-66
2021/08/05 11:15:36;;;;;;;;;;;12.80;93.90;;;;;;5093057;28;19931;-65
2021/08/05 11:18:03;;;;;;;;;;;12.80;93.80;;;;;;5092977;28;19915;-67
2021/08/05 11:20:29;;;;;;;;;;;12.80;93.90;;;;;;5092275;28;19919;-67
2021/08/05 11:22:56;;;;;;;;;;;12.80;93.80;;;;;;5093048;28;19908;-66
2021/08/05 11:25:23;;;;;;;;;;;12.80;94.00;;;;;;5092660;28;20351;-66
2021/08/05 11:28:15;;;;;;;;;;;12.70;93.80;;;;;;5092518;28;19916;-66
2021/08/05 11:30:44;;;;;;;;;;;12.70;94.00;;;;;;5061840;28;19908;-67
2021/08/05 11:33:28;;;;;;;;;;;12.70;94.00;;;;;;5092319;28;20286;-65
2021/08/05 11:36:19;;;;;;;;;;;12.70;94.00;;;;;;5092153;28;20489;-66
2021/08/05 11:39:12;;;;;;;;;;;12.70;94.20;;;;;;5092496;28;19908;-65
2021/08/05 11:41:38;;;;;;;;;;;12.60;94.30;;;;;;5088797;28;19908;-67
2021/08/05 11:44:21;;;;;;;;;;;12.60;94.40;;;;;;5092412;28;19908;-65
2021/08/05 11:47:08;;;;;;;;;;;12.60;94.60;;;;;;5092377;28;19925;-65
2021/08/05 11:49:39;;;;;;;;;;;12.60;94.60;;;;;;5091518;28;20373;-65
2021/08/05 11:52:10;;;;;;;;;;;12.60;94.50;;;;;;5092373;28;19908;-65
2021/08/05 11:54:38;;;;;;;;;;;12.60;94.50;;;;;;5092271;28;19912;-64
2021/08/05 11:57:06;;;;;;;;;;;12.60;94.50;;;;;;5092463;28;19909;-66
2021/08/05 11:59:37;;;;;;;;;;;12.50;94.30;;;;;;5091990;28;19908;-66
2021/08/05 12:02:04;;;;;;;;;;;12.50;94.40;;;;;;5092503;28;19912;-67
2021/08/05 12:04:31;;;;;;;;;;;12.50;94.50;;;;;;5091592;28;20355;-65
2021/08/05 12:07:16;;;;;;;;;;;12.40;94.60;;;;;;5092310;28;19916;-66
2021/08/05 12:09:42;;;;;;;;;;;12.40;94.80;;;;;;5092253;28;19995;-64
2021/08/05 12:12:09;;;;;;;;;;;12.40;94.60;;;;;;5092483;28;19915;-64
2021/08/05 12:14:36;;;;;;;;;;;12.40;94.60;;;;;;5092430;28;19908;-65
2021/08/05 12:17:03;;;;;;;;;;;12.40;94.60;;;;;;5092587;28;19931;-66
2021/08/05 12:19:34;;;;;;;;;;;12.40;94.70;;;;;;5093462;28;19977;-64
2021/08/05 12:22:00;;;;;;;;;;;12.30;94.90;;;;;;5092828;28;19962;-64
2021/08/05 12:24:41;;;;;;;;;;;12.30;94.90;;;;;;5093383;28;19915;-64
2021/08/05 12:27:07;;;;;;;;;;;12.30;95.30;;;;;;5093226;28;19916;-64
2021/08/05 12:29:34;;;;;;;;;;;12.30;95.00;;;;;;5092083;28;20346;-65
2021/08/05 12:32:07;;;;;;;;;;;12.30;95.60;;;;;;5092066;28;19908;-66
2021/08/05 12:34:34;;;;;;;;;;;12.40;95.40;;;;;;5091326;28;19912;-66
2021/08/05 12:37:13;;;;;;;;;;;12.40;95.50;;;;;;5091935;28;20028;-65
2021/08/05 12:39:40;;;;;;;;;;;12.50;95.10;;;;;;5091668;28;19953;-65
2021/08/05 12:42:06;;;;;;;;;;;12.50;95.30;;;;;;5092250;28;19969;-65
2021/08/05 12:44:35;;;;;;;;;;;12.50;95.10;;;;;;5092563;28;19939;-64
2021/08/05 12:47:03;;;;;;;;;;;12.50;94.50;;;;;;5095367;28;20359;-65
2021/08/05 12:49:30;;;;;;;;;;;12.40;94.60;;;;;;5095722;28;19909;-65
2021/08/05 12:51:58;;;;;;;;;;;12.40;94.60;;;;;;5095856;28;19988;-64
2021/08/05 12:54:24;;;;;;;;;;;12.30;94.60;;;;;;5095677;28;20304;-65
2021/08/05 12:56:52;;;;;;;;;;;12.40;94.60;;;;;;5095372;28;19908;-65
2021/08/05 12:59:25;;;;;;;;;;;12.30;94.50;;;;;;5095418;28;19912;-64
2021/08/05 13:02:04;;;;;;;;;;;12.30;94.70;;;;;;5075316;28;19915;-64
2021/08/05 13:04:32;;;;;;;;;;;12.30;94.60;;;;;;5074985;28;20331;-65
2021/08/05 13:06:59;;;;;;;;;;;12.30;94.50;;;;;;5074821;28;19917;-64
2021/08/05 13:09:26;;;;;;;;;;;12.40;94.50;;;;;;5075116;28;19916;-65
2021/08/05 13:11:54;;;;;;;;;;;12.30;94.30;;;;;;5074908;28;20275;-65
2021/08/05 13:14:26;;;;;;;;;;;12.30;94.50;;;;;;5074945;28;20045;-65
2021/08/05 13:17:09;;;;;;;;;;;12.30;94.60;;;;;;5075103;28;20404;-64
2021/08/05 13:19:52;;;;;;;;;;;12.30;94.90;;;;;;5074551;28;19909;-65
2021/08/05 13:22:32;;;;;;;;;;;12.30;94.50;;;;;;5074949;28;19961;-64
2021/08/05 13:24:59;;;;;;;;;;;12.30;94.50;;;;;;5074957;28;20420;-66
2021/08/05 13:27:31;;;;;;;;;;;12.40;94.50;;;;;;5074657;28;19916;-64
2021/08/05 13:29:59;;;;;;;;;;;12.40;94.60;;;;;;5074859;28;20357;-64
2021/08/05 13:32:25;;;;;;;;;;;12.50;94.40;;;;;;5074458;28;19953;-65
2021/08/05 13:34:58;;;;;;;;;;;12.40;94.30;;;;;;5074549;28;19909;-64
2021/08/05 13:37:26;;;;;;;;;;;12.40;93.90;;;;;;5074802;28;20315;-64
2021/08/05 13:39:54;;;;;;;;;;;12.40;93.90;;;;;;5074355;28;19962;-64
2021/08/05 13:42:21;;;;;;;;;;;12.30;94.50;;;;;;5074615;28;19915;-65
2021/08/05 13:44:48;;;;;;;;;;;12.40;94.10;;;;;;5074384;28;20007;-66
2021/08/05 13:47:15;;;;;;;;;;;12.30;94.00;;;;;;5074516;28;19963;-65
2021/08/05 13:49:43;;;;;;;;;;;12.30;94.00;;;;;;5073894;28;19979;-65
2021/08/05 13:52:10;;;;;;;;;;;12.30;94.50;;;;;;5074204;28;20001;-66
2021/08/05 13:54:37;;;;;;;;;;;12.30;94.00;;;;;;5074365;28;19916;-65
2021/08/05 13:57:04;;;;;;;;;;;12.30;94.20;;;;;;5073909;28;19918;-64
2021/08/05 13:59:31;;;;;;;;;;;12.20;94.50;;;;;;5073844;28;19908;-64
2021/08/05 14:01:58;;;;;;;;;;;12.30;94.40;;;;;;5074084;28;19913;-64
2021/08/05 14:04:25;;;;;;;;;;;12.30;93.90;;;;;;5074023;28;19962;-64
2021/08/05 14:06:51;;;;;;;;;;;12.30;94.30;;;;;;5074055;28;19920;-65
2021/08/05 14:09:18;;;;;;;;;;;12.40;94.40;;;;;;5073965;28;19908;-63
2021/08/05 14:11:44;;;;;;;;;;;12.40;93.80;;;;;;5073949;28;19939;-63
2021/08/05 14:14:11;;;;;;;;;;;12.50;94.00;;;;;;5073844;28;20374;-64
2021/08/05 14:16:44;;;;;;;;;;;12.50;93.70;;;;;;5073983;28;19961;-64
2021/08/05 14:19:11;;;;;;;;;;;12.50;93.70;;;;;;5073940;28;19995;-64
2021/08/05 14:21:38;;;;;;;;;;;12.60;93.50;;;;;;5073728;28;19908;-65